sensor_id;sensor_type;location;lat;lon;timestamp;P1;durP1;ratioP1;P2;durP2;ratioP2
3999;SDS011;2014;53.604;10.112;2023-02-02T00:02:14;10.80;;;2.40;;
3999;SDS011;2014;53.604;10.112;2023-02-02T00:04:42;18.30;;;2.80;;
3999;SDS011;2014;53.604;10.112;2023-02-02T00:07:10;12.57;;;3.13;;
3999;SDS011;2014;53.604;10.112;2023-02-02T00:09:37;33.10;;;4.53;;
3999;SDS011;2014;53.604;10.112;2023-02-02T00:12:05;23.60;;;3.93;;
3999;SDS011;2014;53.604;10.112;2023-02-02T00:14:32;17.37;;;3.30;;
3999;SDS011;2014;53.604;10.112;2023-02-02T00:16:59;19.80;;;4.93;;
3999;SDS011;2014;53.604;10.112;2023-02-02T00:19:29;19.67;;;3.00;;
3999;SDS011;2014;53.604;10.112;2023-02-02T00:21:58;18.00;;;3.83;;
3999;SDS011;2014;53.604;10.112;2023-02-02T00:24:26;36.43;;;3.87;;
3999;SDS011;2014;53.604;10.112;2023-02-02T00:26:55;17.00;;;2.90;;
3999;SDS011;2014;53.604;10.112;2023-02-02T00:29:23;26.80;;;4.23;;
3999;SDS011;2014;53.604;10.112;2023-02-02T00:31:51;24.30;;;4.30;;
3999;SDS011;2014;53.604;10.112;2023-02-02T00:34:18;12.67;;;2.20;;
3999;SDS011;2014;53.604;10.112;2023-02-02T00:36:46;12.90;;;2.70;;
3999;SDS011;2014;53.604;10.112;2023-02-02T00:39:15;9.60;;;2.70;;
3999;SDS011;2014;53.604;10.112;2023-02-02T00:41:43;17.03;;;2.63;;
3999;SDS011;2014;53.604;10.112;2023-02-02T00:44:11;10.07;;;2.03;;
3999;SDS011;2014;53.604;10.112;2023-02-02T00:46:56;17.77;;;4.97;;
3999;SDS011;2014;53.604;10.112;2023-02-02T00:49:23;23.50;;;5.07;;
3999;SDS011;2014;53.604;10.112;2023-02-02T00:51:50;21.00;;;3.47;;
3999;SDS011;2014;53.604;10.112;2023-02-02T00:54:19;11.10;;;2.83;;
3999;SDS011;2014;53.604;10.112;2023-02-02T00:56:46;15.33;;;2.03;;
3999;SDS011;2014;53.604;10.112;2023-02-02T00:59:14;5.50;;;2.63;;
3999;SDS011;2014;53.604;10.112;2023-02-02T01:01:41;15.80;;;2.77;;
3999;SDS011;2014;53.604;10.112;2023-02-02T01:04:08;11.57;;;2.50;;
3999;SDS011;2014;53.604;10.112;2023-02-02T01:06:36;34.67;;;4.00;;
3999;SDS011;2014;53.604;10.112;2023-02-02T01:09:03;13.90;;;2.00;;
3999;SDS011;2014;53.604;10.112;2023-02-02T01:11:32;11.50;;;3.23;;
3999;SDS011;2014;53.604;10.112;2023-02-02T01:13:59;24.17;;;2.30;;
3999;SDS011;2014;53.604;10.112;2023-02-02T01:16:27;12.90;;;2.93;;
3999;SDS011;2014;53.604;10.112;2023-02-02T01:18:54;12.50;;;1.87;;
3999;SDS011;2014;53.604;10.112;2023-02-02T01:21:22;13.80;;;2.93;;
3999;SDS011;2014;53.604;10.112;2023-02-02T01:23:49;16.60;;;2.77;;
3999;SDS011;2014;53.604;10.112;2023-02-02T01:26:16;29.93;;;4.70;;
3999;SDS011;2014;53.604;10.112;2023-02-02T01:28:45;7.97;;;1.80;;
3999;SDS011;2014;53.604;10.112;2023-02-02T01:31:14;22.03;;;3.67;;
3999;SDS011;2014;53.604;10.112;2023-02-02T01:33:41;23.40;;;2.83;;
3999;SDS011;2014;53.604;10.112;2023-02-02T01:36:11;16.47;;;2.47;;
3999;SDS011;2014;53.604;10.112;2023-02-02T01:38:38;17.43;;;3.00;;
3999;SDS011;2014;53.604;10.112;2023-02-02T01:41:06;11.83;;;2.27;;
3999;SDS011;2014;53.604;10.112;2023-02-02T01:43:51;10.83;;;2.20;;
3999;SDS011;2014;53.604;10.112;2023-02-02T01:46:19;18.00;;;2.70;;
3999;SDS011;2014;53.604;10.112;2023-02-02T01:48:48;17.07;;;2.37;;
3999;SDS011;2014;53.604;10.112;2023-02-02T01:51:18;17.53;;;3.70;;
3999;SDS011;2014;53.604;10.112;2023-02-02T01:53:47;10.87;;;2.30;;
3999;SDS011;2014;53.604;10.112;2023-02-02T01:56:16;14.20;;;1.83;;
3999;SDS011;2014;53.604;10.112;2023-02-02T01:58:45;10.57;;;3.27;;
3999;SDS011;2014;53.604;10.112;2023-02-02T02:01:14;23.27;;;2.93;;
3999;SDS011;2014;53.604;10.112;2023-02-02T02:03:41;14.47;;;2.60;;
3999;SDS011;2014;53.604;10.112;2023-02-02T02:06:09;16.17;;;2.30;;
3999;SDS011;2014;53.604;10.112;2023-02-02T02:08:38;9.50;;;2.70;;
3999;SDS011;2014;53.604;10.112;2023-02-02T02:11:06;17.77;;;2.33;;
3999;SDS011;2014;53.604;10.112;2023-02-02T02:13:34;8.00;;;2.27;;
3999;SDS011;2014;53.604;10.112;2023-02-02T02:16:22;14.00;;;2.37;;
3999;SDS011;2014;53.604;10.112;2023-02-02T02:18:58;12.67;;;3.60;;
3999;SDS011;2014;53.604;10.112;2023-02-02T02:21:44;6.37;;;1.70;;
3999;SDS011;2014;53.604;10.112;2023-02-02T02:30:34;20.10;;;1.40;;
3999;SDS011;2014;53.604;10.112;2023-02-02T02:33:05;10.37;;;2.30;;
3999;SDS011;2014;53.604;10.112;2023-02-02T02:35:37;14.30;;;1.67;;
3999;SDS011;2014;53.604;10.112;2023-02-02T02:38:08;10.93;;;1.97;;
3999;SDS011;2014;53.604;10.112;2023-02-02T02:40:39;8.73;;;1.47;;
3999;SDS011;2014;53.604;10.112;2023-02-02T02:43:08;7.40;;;1.70;;
3999;SDS011;2014;53.604;10.112;2023-02-02T02:45:38;5.67;;;1.43;;
3999;SDS011;2014;53.604;10.112;2023-02-02T02:48:10;6.07;;;1.73;;
3999;SDS011;2014;53.604;10.112;2023-02-02T02:50:37;14.70;;;1.60;;
3999;SDS011;2014;53.604;10.112;2023-02-02T02:53:06;9.83;;;2.50;;
3999;SDS011;2014;53.604;10.112;2023-02-02T02:55:35;5.10;;;2.20;;
3999;SDS011;2014;53.604;10.112;2023-02-02T02:58:07;19.63;;;2.33;;
3999;SDS011;2014;53.604;10.112;2023-02-02T03:00:46;13.20;;;1.33;;
3999;SDS011;2014;53.604;10.112;2023-02-02T03:03:18;14.93;;;1.77;;
3999;SDS011;2014;53.604;10.112;2023-02-02T03:05:48;13.30;;;1.50;;
3999;SDS011;2014;53.604;10.112;2023-02-02T03:08:27;10.67;;;1.53;;
3999;SDS011;2014;53.604;10.112;2023-02-02T03:10:57;15.87;;;2.47;;
3999;SDS011;2014;53.604;10.112;2023-02-02T03:13:26;16.83;;;2.47;;
3999;SDS011;2014;53.604;10.112;2023-02-02T03:15:55;7.53;;;2.27;;
3999;SDS011;2014;53.604;10.112;2023-02-02T03:18:24;8.43;;;1.87;;
3999;SDS011;2014;53.604;10.112;2023-02-02T03:20:53;14.50;;;1.70;;
3999;SDS011;2014;53.604;10.112;2023-02-02T03:23:20;5.20;;;1.37;;
3999;SDS011;2014;53.604;10.112;2023-02-02T03:25:48;15.13;;;1.37;;
3999;SDS011;2014;53.604;10.112;2023-02-02T03:28:15;4.97;;;1.13;;
3999;SDS011;2014;53.604;10.112;2023-02-02T03:30:43;8.80;;;1.27;;
3999;SDS011;2014;53.604;10.112;2023-02-02T03:33:11;7.53;;;0.87;;
3999;SDS011;2014;53.604;10.112;2023-02-02T03:35:41;3.47;;;1.20;;
3999;SDS011;2014;53.604;10.112;2023-02-02T03:38:09;5.90;;;0.80;;
3999;SDS011;2014;53.604;10.112;2023-02-02T03:40:36;8.17;;;1.10;;
3999;SDS011;2014;53.604;10.112;2023-02-02T03:43:04;8.00;;;0.73;;
3999;SDS011;2014;53.604;10.112;2023-02-02T03:45:31;2.60;;;0.80;;
3999;SDS011;2014;53.604;10.112;2023-02-02T03:47:59;4.53;;;1.17;;
3999;SDS011;2014;53.604;10.112;2023-02-02T03:50:26;3.80;;;0.93;;
3999;SDS011;2014;53.604;10.112;2023-02-02T03:52:55;5.60;;;1.10;;
3999;SDS011;2014;53.604;10.112;2023-02-02T03:55:22;9.10;;;1.10;;
3999;SDS011;2014;53.604;10.112;2023-02-02T03:57:50;6.60;;;1.53;;
3999;SDS011;2014;53.604;10.112;2023-02-02T04:00:17;6.00;;;0.97;;
3999;SDS011;2014;53.604;10.112;2023-02-02T04:02:45;7.37;;;1.53;;
3999;SDS011;2014;53.604;10.112;2023-02-02T04:05:12;8.33;;;1.97;;
3999;SDS011;2014;53.604;10.112;2023-02-02T04:07:40;15.43;;;1.40;;
3999;SDS011;2014;53.604;10.112;2023-02-02T04:10:09;19.60;;;2.57;;
3999;SDS011;2014;53.604;10.112;2023-02-02T04:12:36;12.40;;;1.47;;
3999;SDS011;2014;53.604;10.112;2023-02-02T04:15:04;4.03;;;1.53;;
3999;SDS011;2014;53.604;10.112;2023-02-02T04:17:32;8.80;;;1.00;;
3999;SDS011;2014;53.604;10.112;2023-02-02T04:20:00;12.03;;;1.83;;
3999;SDS011;2014;53.604;10.112;2023-02-02T04:22:27;5.60;;;1.07;;
3999;SDS011;2014;53.604;10.112;2023-02-02T04:24:55;3.67;;;1.10;;
3999;SDS011;2014;53.604;10.112;2023-02-02T04:27:23;6.93;;;2.30;;
3999;SDS011;2014;53.604;10.112;2023-02-02T04:29:51;7.20;;;1.77;;
3999;SDS011;2014;53.604;10.112;2023-02-02T04:32:18;8.73;;;1.53;;
3999;SDS011;2014;53.604;10.112;2023-02-02T04:34:45;11.60;;;1.13;;
3999;SDS011;2014;53.604;10.112;2023-02-02T04:37:13;13.27;;;1.97;;
3999;SDS011;2014;53.604;10.112;2023-02-02T04:39:40;6.93;;;1.10;;
3999;SDS011;2014;53.604;10.112;2023-02-02T04:42:08;9.83;;;2.00;;
3999;SDS011;2014;53.604;10.112;2023-02-02T04:44:44;5.10;;;1.60;;
3999;SDS011;2014;53.604;10.112;2023-02-02T04:47:11;2.70;;;0.90;;
3999;SDS011;2014;53.604;10.112;2023-02-02T04:49:38;6.80;;;1.17;;
3999;SDS011;2014;53.604;10.112;2023-02-02T04:52:06;6.30;;;1.30;;
3999;SDS011;2014;53.604;10.112;2023-02-02T04:54:33;4.13;;;0.90;;
3999;SDS011;2014;53.604;10.112;2023-02-02T04:57:00;3.53;;;0.77;;
3999;SDS011;2014;53.604;10.112;2023-02-02T04:59:28;5.40;;;0.90;;
3999;SDS011;2014;53.604;10.112;2023-02-02T05:01:57;5.63;;;1.03;;
3999;SDS011;2014;53.604;10.112;2023-02-02T05:04:25;11.67;;;1.60;;
3999;SDS011;2014;53.604;10.112;2023-02-02T05:06:52;14.33;;;1.67;;
3999;SDS011;2014;53.604;10.112;2023-02-02T05:09:19;9.20;;;1.23;;
3999;SDS011;2014;53.604;10.112;2023-02-02T05:11:47;15.97;;;1.93;;
3999;SDS011;2014;53.604;10.112;2023-02-02T05:14:14;5.40;;;1.73;;
3999;SDS011;2014;53.604;10.112;2023-02-02T05:16:43;8.10;;;1.17;;
3999;SDS011;2014;53.604;10.112;2023-02-02T05:19:12;10.73;;;1.73;;
3999;SDS011;2014;53.604;10.112;2023-02-02T05:21:41;15.53;;;1.70;;
3999;SDS011;2014;53.604;10.112;2023-02-02T05:24:10;4.50;;;1.70;;
3999;SDS011;2014;53.604;10.112;2023-02-02T05:26:38;5.23;;;1.03;;
3999;SDS011;2014;53.604;10.112;2023-02-02T05:29:06;7.47;;;1.07;;
3999;SDS011;2014;53.604;10.112;2023-02-02T05:31:33;8.23;;;1.90;;
3999;SDS011;2014;53.604;10.112;2023-02-02T05:34:01;18.93;;;2.13;;
3999;SDS011;2014;53.604;10.112;2023-02-02T05:36:30;4.93;;;1.33;;
3999;SDS011;2014;53.604;10.112;2023-02-02T05:38:57;7.07;;;1.00;;
3999;SDS011;2014;53.604;10.112;2023-02-02T05:41:25;9.73;;;1.20;;
3999;SDS011;2014;53.604;10.112;2023-02-02T05:43:52;6.30;;;1.13;;
3999;SDS011;2014;53.604;10.112;2023-02-02T05:46:20;9.17;;;1.10;;
3999;SDS011;2014;53.604;10.112;2023-02-02T05:48:47;9.53;;;1.33;;
3999;SDS011;2014;53.604;10.112;2023-02-02T05:51:14;8.07;;;1.30;;
3999;SDS011;2014;53.604;10.112;2023-02-02T05:53:44;6.30;;;1.07;;
3999;SDS011;2014;53.604;10.112;2023-02-02T05:56:12;6.97;;;1.20;;
3999;SDS011;2014;53.604;10.112;2023-02-02T05:58:40;10.70;;;1.40;;
3999;SDS011;2014;53.604;10.112;2023-02-02T06:01:08;8.30;;;1.37;;
3999;SDS011;2014;53.604;10.112;2023-02-02T06:03:36;14.27;;;2.03;;
3999;SDS011;2014;53.604;10.112;2023-02-02T06:06:03;7.93;;;2.60;;
3999;SDS011;2014;53.604;10.112;2023-02-02T06:08:31;6.77;;;2.20;;
3999;SDS011;2014;53.604;10.112;2023-02-02T06:11:03;13.07;;;2.50;;
3999;SDS011;2014;53.604;10.112;2023-02-02T06:13:34;10.90;;;1.70;;
3999;SDS011;2014;53.604;10.112;2023-02-02T06:16:01;10.60;;;2.10;;
3999;SDS011;2014;53.604;10.112;2023-02-02T06:18:28;14.00;;;2.27;;
3999;SDS011;2014;53.604;10.112;2023-02-02T06:20:56;9.80;;;1.97;;
3999;SDS011;2014;53.604;10.112;2023-02-02T06:23:23;12.10;;;3.27;;
3999;SDS011;2014;53.604;10.112;2023-02-02T06:25:50;9.50;;;1.30;;
3999;SDS011;2014;53.604;10.112;2023-02-02T06:28:19;8.07;;;1.70;;
3999;SDS011;2014;53.604;10.112;2023-02-02T06:30:46;5.83;;;1.77;;
3999;SDS011;2014;53.604;10.112;2023-02-02T06:33:14;17.83;;;2.47;;
3999;SDS011;2014;53.604;10.112;2023-02-02T06:35:41;8.53;;;1.70;;
3999;SDS011;2014;53.604;10.112;2023-02-02T06:38:09;8.47;;;2.23;;
3999;SDS011;2014;53.604;10.112;2023-02-02T06:40:36;18.17;;;2.50;;
3999;SDS011;2014;53.604;10.112;2023-02-02T06:43:03;5.43;;;1.20;;
3999;SDS011;2014;53.604;10.112;2023-02-02T06:45:32;6.90;;;1.87;;
3999;SDS011;2014;53.604;10.112;2023-02-02T06:48:04;17.00;;;2.07;;
3999;SDS011;2014;53.604;10.112;2023-02-02T06:50:35;20.63;;;2.40;;
3999;SDS011;2014;53.604;10.112;2023-02-02T06:53:03;11.90;;;2.17;;
3999;SDS011;2014;53.604;10.112;2023-02-02T06:55:30;6.17;;;1.70;;
3999;SDS011;2014;53.604;10.112;2023-02-02T06:57:58;12.20;;;1.70;;
3999;SDS011;2014;53.604;10.112;2023-02-02T07:00:26;13.27;;;2.43;;
3999;SDS011;2014;53.604;10.112;2023-02-02T07:02:56;11.73;;;2.13;;
3999;SDS011;2014;53.604;10.112;2023-02-02T07:05:23;11.63;;;2.80;;
3999;SDS011;2014;53.604;10.112;2023-02-02T07:07:50;13.83;;;3.17;;
3999;SDS011;2014;53.604;10.112;2023-02-02T07:10:18;7.87;;;1.50;;
3999;SDS011;2014;53.604;10.112;2023-02-02T07:12:45;17.67;;;1.43;;
3999;SDS011;2014;53.604;10.112;2023-02-02T07:15:12;11.80;;;2.00;;
3999;SDS011;2014;53.604;10.112;2023-02-02T07:17:40;10.83;;;2.13;;
3999;SDS011;2014;53.604;10.112;2023-02-02T07:20:09;9.27;;;2.20;;
3999;SDS011;2014;53.604;10.112;2023-02-02T07:22:37;7.00;;;1.73;;
3999;SDS011;2014;53.604;10.112;2023-02-02T07:25:05;10.63;;;1.97;;
3999;SDS011;2014;53.604;10.112;2023-02-02T07:27:32;8.50;;;1.67;;
3999;SDS011;2014;53.604;10.112;2023-02-02T07:30:00;17.83;;;1.67;;
3999;SDS011;2014;53.604;10.112;2023-02-02T07:32:28;9.73;;;1.70;;
3999;SDS011;2014;53.604;10.112;2023-02-02T07:34:55;17.30;;;1.80;;
3999;SDS011;2014;53.604;10.112;2023-02-02T07:37:24;2.17;;;1.63;;
3999;SDS011;2014;53.604;10.112;2023-02-02T07:39:51;6.50;;;1.00;;
3999;SDS011;2014;53.604;10.112;2023-02-02T07:42:18;5.13;;;1.20;;
3999;SDS011;2014;53.604;10.112;2023-02-02T07:44:46;7.23;;;1.53;;
3999;SDS011;2014;53.604;10.112;2023-02-02T07:47:13;8.20;;;2.30;;
3999;SDS011;2014;53.604;10.112;2023-02-02T07:49:41;6.67;;;1.57;;
3999;SDS011;2014;53.604;10.112;2023-02-02T07:52:09;8.83;;;1.60;;
3999;SDS011;2014;53.604;10.112;2023-02-02T07:54:38;1.90;;;1.20;;
3999;SDS011;2014;53.604;10.112;2023-02-02T07:57:06;16.63;;;1.97;;
3999;SDS011;2014;53.604;10.112;2023-02-02T07:59:33;8.47;;;1.20;;
3999;SDS011;2014;53.604;10.112;2023-02-02T08:02:00;3.40;;;0.70;;
3999;SDS011;2014;53.604;10.112;2023-02-02T08:04:28;10.93;;;1.70;;
3999;SDS011;2014;53.604;10.112;2023-02-02T08:06:57;8.93;;;2.03;;
3999;SDS011;2014;53.604;10.112;2023-02-02T08:09:25;9.73;;;1.37;;
3999;SDS011;2014;53.604;10.112;2023-02-02T08:11:54;13.97;;;2.93;;
3999;SDS011;2014;53.604;10.112;2023-02-02T08:14:25;25.93;;;1.70;;
3999;SDS011;2014;53.604;10.112;2023-02-02T08:16:53;13.20;;;1.97;;
3999;SDS011;2014;53.604;10.112;2023-02-02T08:19:20;6.23;;;1.47;;
3999;SDS011;2014;53.604;10.112;2023-02-02T08:21:48;5.87;;;1.50;;
3999;SDS011;2014;53.604;10.112;2023-02-02T08:24:15;5.17;;;1.10;;
3999;SDS011;2014;53.604;10.112;2023-02-02T08:26:42;14.90;;;1.33;;
3999;SDS011;2014;53.604;10.112;2023-02-02T08:29:11;7.33;;;1.13;;
3999;SDS011;2014;53.604;10.112;2023-02-02T08:31:41;7.73;;;1.60;;
3999;SDS011;2014;53.604;10.112;2023-02-02T08:34:09;9.47;;;0.93;;
3999;SDS011;2014;53.604;10.112;2023-02-02T08:36:38;7.00;;;1.10;;
3999;SDS011;2014;53.604;10.112;2023-02-02T08:39:06;11.63;;;1.73;;
3999;SDS011;2014;53.604;10.112;2023-02-02T08:41:34;11.50;;;1.70;;
3999;SDS011;2014;53.604;10.112;2023-02-02T08:44:03;6.17;;;0.97;;
3999;SDS011;2014;53.604;10.112;2023-02-02T08:46:32;14.73;;;2.37;;
3999;SDS011;2014;53.604;10.112;2023-02-02T08:48:59;5.00;;;1.30;;
3999;SDS011;2014;53.604;10.112;2023-02-02T08:51:27;6.87;;;1.50;;
3999;SDS011;2014;53.604;10.112;2023-02-02T08:53:54;12.63;;;2.20;;
3999;SDS011;2014;53.604;10.112;2023-02-02T08:56:21;16.37;;;1.77;;
3999;SDS011;2014;53.604;10.112;2023-02-02T08:58:49;15.40;;;2.90;;
3999;SDS011;2014;53.604;10.112;2023-02-02T09:01:18;15.33;;;3.83;;
3999;SDS011;2014;53.604;10.112;2023-02-02T09:03:47;9.60;;;1.70;;
3999;SDS011;2014;53.604;10.112;2023-02-02T09:06:16;4.03;;;1.30;;
3999;SDS011;2014;53.604;10.112;2023-02-02T09:08:44;8.40;;;1.53;;
3999;SDS011;2014;53.604;10.112;2023-02-02T09:11:12;8.07;;;0.93;;
3999;SDS011;2014;53.604;10.112;2023-02-02T09:13:40;9.50;;;1.53;;
3999;SDS011;2014;53.604;10.112;2023-02-02T09:16:09;9.20;;;2.40;;
3999;SDS011;2014;53.604;10.112;2023-02-02T09:18:37;9.47;;;1.93;;
3999;SDS011;2014;53.604;10.112;2023-02-02T09:21:06;8.80;;;2.97;;
3999;SDS011;2014;53.604;10.112;2023-02-02T09:23:35;10.93;;;1.20;;
3999;SDS011;2014;53.604;10.112;2023-02-02T09:26:09;1.47;;;0.80;;
3999;SDS011;2014;53.604;10.112;2023-02-02T09:28:37;8.93;;;1.23;;
3999;SDS011;2014;53.604;10.112;2023-02-02T09:31:04;8.23;;;1.13;;
3999;SDS011;2014;53.604;10.112;2023-02-02T09:33:32;6.57;;;0.87;;
3999;SDS011;2014;53.604;10.112;2023-02-02T09:36:03;21.57;;;2.30;;
3999;SDS011;2014;53.604;10.112;2023-02-02T09:38:32;12.87;;;1.47;;
3999;SDS011;2014;53.604;10.112;2023-02-02T09:40:59;9.83;;;1.70;;
3999;SDS011;2014;53.604;10.112;2023-02-02T09:43:33;10.00;;;1.53;;
3999;SDS011;2014;53.604;10.112;2023-02-02T09:46:04;25.67;;;2.80;;
3999;SDS011;2014;53.604;10.112;2023-02-02T09:48:36;9.77;;;1.10;;
3999;SDS011;2014;53.604;10.112;2023-02-02T09:51:07;10.13;;;1.30;;
3999;SDS011;2014;53.604;10.112;2023-02-02T09:53:39;9.37;;;2.10;;
3999;SDS011;2014;53.604;10.112;2023-02-02T09:56:10;4.60;;;1.80;;
3999;SDS011;2014;53.604;10.112;2023-02-02T09:58:40;12.87;;;1.40;;
3999;SDS011;2014;53.604;10.112;2023-02-02T10:01:11;9.03;;;2.30;;
3999;SDS011;2014;53.604;10.112;2023-02-02T10:03:41;12.03;;;1.80;;
3999;SDS011;2014;53.604;10.112;2023-02-02T10:06:19;8.90;;;1.40;;
3999;SDS011;2014;53.604;10.112;2023-02-02T10:08:49;7.93;;;1.67;;
3999;SDS011;2014;53.604;10.112;2023-02-02T10:11:29;9.33;;;1.90;;
3999;SDS011;2014;53.604;10.112;2023-02-02T10:13:58;12.03;;;3.47;;
3999;SDS011;2014;53.604;10.112;2023-02-02T10:16:28;2.80;;;0.90;;
3999;SDS011;2014;53.604;10.112;2023-02-02T10:18:56;10.40;;;1.20;;
3999;SDS011;2014;53.604;10.112;2023-02-02T10:21:27;5.53;;;1.00;;
3999;SDS011;2014;53.604;10.112;2023-02-02T10:24:00;8.27;;;0.87;;
3999;SDS011;2014;53.604;10.112;2023-02-02T10:26:29;6.60;;;1.00;;
3999;SDS011;2014;53.604;10.112;2023-02-02T10:29:02;12.30;;;1.27;;
3999;SDS011;2014;53.604;10.112;2023-02-02T10:31:40;10.57;;;1.30;;
3999;SDS011;2014;53.604;10.112;2023-02-02T10:34:12;8.90;;;1.47;;
3999;SDS011;2014;53.604;10.112;2023-02-02T10:36:46;13.70;;;1.63;;
3999;SDS011;2014;53.604;10.112;2023-02-02T10:39:19;2.50;;;1.20;;
3999;SDS011;2014;53.604;10.112;2023-02-02T10:41:52;18.27;;;1.30;;
3999;SDS011;2014;53.604;10.112;2023-02-02T10:44:24;4.10;;;0.83;;
3999;SDS011;2014;53.604;10.112;2023-02-02T10:46:54;9.90;;;1.83;;
3999;SDS011;2014;53.604;10.112;2023-02-02T10:49:25;6.67;;;1.20;;
3999;SDS011;2014;53.604;10.112;2023-02-02T10:51:54;5.80;;;1.00;;
3999;SDS011;2014;53.604;10.112;2023-02-02T10:54:33;5.43;;;1.43;;
3999;SDS011;2014;53.604;10.112;2023-02-02T10:57:03;2.20;;;1.37;;
3999;SDS011;2014;53.604;10.112;2023-02-02T10:59:34;2.20;;;1.03;;
3999;SDS011;2014;53.604;10.112;2023-02-02T11:02:06;6.03;;;1.10;;
3999;SDS011;2014;53.604;10.112;2023-02-02T11:04:34;6.70;;;0.97;;
3999;SDS011;2014;53.604;10.112;2023-02-02T11:07:19;5.70;;;1.33;;
3999;SDS011;2014;53.604;10.112;2023-02-02T11:09:48;4.93;;;1.70;;
3999;SDS011;2014;53.604;10.112;2023-02-02T11:12:19;1.33;;;0.93;;
3999;SDS011;2014;53.604;10.112;2023-02-02T11:14:48;3.80;;;0.80;;
3999;SDS011;2014;53.604;10.112;2023-02-02T11:17:18;2.63;;;0.60;;
3999;SDS011;2014;53.604;10.112;2023-02-02T11:19:46;4.20;;;0.93;;
3999;SDS011;2014;53.604;10.112;2023-02-02T11:22:22;8.37;;;1.50;;
3999;SDS011;2014;53.604;10.112;2023-02-02T11:24:51;5.27;;;0.80;;
3999;SDS011;2014;53.604;10.112;2023-02-02T11:27:20;4.90;;;0.93;;
3999;SDS011;2014;53.604;10.112;2023-02-02T11:29:48;7.67;;;0.93;;
3999;SDS011;2014;53.604;10.112;2023-02-02T11:32:17;4.90;;;1.20;;
3999;SDS011;2014;53.604;10.112;2023-02-02T11:34:46;10.27;;;1.33;;
3999;SDS011;2014;53.604;10.112;2023-02-02T11:37:13;9.83;;;1.20;;
3999;SDS011;2014;53.604;10.112;2023-02-02T11:39:42;3.13;;;0.90;;
3999;SDS011;2014;53.604;10.112;2023-02-02T11:42:13;7.53;;;0.90;;
3999;SDS011;2014;53.604;10.112;2023-02-02T11:44:42;4.53;;;0.70;;
3999;SDS011;2014;53.604;10.112;2023-02-02T11:47:15;4.40;;;0.70;;
3999;SDS011;2014;53.604;10.112;2023-02-02T11:49:44;5.63;;;1.37;;
3999;SDS011;2014;53.604;10.112;2023-02-02T11:52:14;7.53;;;1.27;;
3999;SDS011;2014;53.604;10.112;2023-02-02T11:54:44;2.77;;;0.80;;
3999;SDS011;2014;53.604;10.112;2023-02-02T11:57:16;5.73;;;0.80;;
3999;SDS011;2014;53.604;10.112;2023-02-02T11:59:44;9.57;;;1.20;;
3999;SDS011;2014;53.604;10.112;2023-02-02T12:02:22;9.30;;;1.20;;
3999;SDS011;2014;53.604;10.112;2023-02-02T12:04:50;8.60;;;1.00;;
3999;SDS011;2014;53.604;10.112;2023-02-02T12:07:21;0.73;;;0.73;;
3999;SDS011;2014;53.604;10.112;2023-02-02T12:09:49;4.30;;;1.13;;
3999;SDS011;2014;53.604;10.112;2023-02-02T12:12:22;1.83;;;0.80;;
3999;SDS011;2014;53.604;10.112;2023-02-02T12:14:56;5.17;;;0.80;;
3999;SDS011;2014;53.604;10.112;2023-02-02T12:17:29;8.07;;;0.70;;
3999;SDS011;2014;53.604;10.112;2023-02-02T12:20:11;16.47;;;1.43;;
3999;SDS011;2014;53.604;10.112;2023-02-02T12:22:49;3.07;;;1.03;;
3999;SDS011;2014;53.604;10.112;2023-02-02T12:25:36;4.20;;;0.93;;
3999;SDS011;2014;53.604;10.112;2023-02-02T12:28:14;2.80;;;0.97;;
3999;SDS011;2014;53.604;10.112;2023-02-02T12:30:44;8.27;;;1.23;;
3999;SDS011;2014;53.604;10.112;2023-02-02T12:33:17;4.10;;;1.00;;
3999;SDS011;2014;53.604;10.112;2023-02-02T12:35:49;2.40;;;0.90;;
3999;SDS011;2014;53.604;10.112;2023-02-02T12:38:22;1.13;;;1.00;;
3999;SDS011;2014;53.604;10.112;2023-02-02T12:41:02;8.87;;;1.07;;
3999;SDS011;2014;53.604;10.112;2023-02-02T12:43:38;4.20;;;1.00;;
3999;SDS011;2014;53.604;10.112;2023-02-02T12:46:09;6.20;;;0.60;;
3999;SDS011;2014;53.604;10.112;2023-02-02T12:48:42;3.23;;;0.67;;
3999;SDS011;2014;53.604;10.112;2023-02-02T12:51:15;3.70;;;0.93;;
3999;SDS011;2014;53.604;10.112;2023-02-02T12:53:56;6.63;;;1.03;;
3999;SDS011;2014;53.604;10.112;2023-02-02T12:56:30;1.80;;;0.90;;
3999;SDS011;2014;53.604;10.112;2023-02-02T12:59:03;1.70;;;0.87;;
3999;SDS011;2014;53.604;10.112;2023-02-02T13:04:28;11.37;;;1.20;;
3999;SDS011;2014;53.604;10.112;2023-02-02T13:09:47;3.83;;;0.87;;
3999;SDS011;2014;53.604;10.112;2023-02-02T13:12:16;1.50;;;0.90;;
3999;SDS011;2014;53.604;10.112;2023-02-02T13:14:47;3.83;;;1.10;;
3999;SDS011;2014;53.604;10.112;2023-02-02T13:17:17;2.20;;;0.87;;
3999;SDS011;2014;53.604;10.112;2023-02-02T13:19:47;3.53;;;0.90;;
3999;SDS011;2014;53.604;10.112;2023-02-02T13:22:16;7.80;;;1.00;;
3999;SDS011;2014;53.604;10.112;2023-02-02T13:24:45;4.90;;;0.90;;
3999;SDS011;2014;53.604;10.112;2023-02-02T13:27:14;5.00;;;0.70;;
3999;SDS011;2014;53.604;10.112;2023-02-02T13:29:44;6.27;;;1.13;;
3999;SDS011;2014;53.604;10.112;2023-02-02T13:32:18;3.03;;;0.80;;
3999;SDS011;2014;53.604;10.112;2023-02-02T13:34:48;5.17;;;1.00;;
3999;SDS011;2014;53.604;10.112;2023-02-02T13:37:17;2.70;;;0.50;;
3999;SDS011;2014;53.604;10.112;2023-02-02T13:39:48;1.53;;;0.60;;
3999;SDS011;2014;53.604;10.112;2023-02-02T13:42:23;4.73;;;0.70;;
3999;SDS011;2014;53.604;10.112;2023-02-02T13:44:52;2.57;;;0.67;;
3999;SDS011;2014;53.604;10.112;2023-02-02T13:47:24;3.40;;;0.50;;
3999;SDS011;2014;53.604;10.112;2023-02-02T13:49:55;3.23;;;0.60;;
3999;SDS011;2014;53.604;10.112;2023-02-02T13:52:37;9.83;;;1.03;;
3999;SDS011;2014;53.604;10.112;2023-02-02T13:58:00;5.13;;;1.13;;
3999;SDS011;2014;53.604;10.112;2023-02-02T14:00:29;1.80;;;0.90;;
3999;SDS011;2014;53.604;10.112;2023-02-02T14:03:01;3.73;;;1.10;;
3999;SDS011;2014;53.604;10.112;2023-02-02T14:05:30;2.80;;;1.17;;
3999;SDS011;2014;53.604;10.112;2023-02-02T14:07:59;10.67;;;1.50;;
3999;SDS011;2014;53.604;10.112;2023-02-02T14:10:29;6.67;;;1.23;;
3999;SDS011;2014;53.604;10.112;2023-02-02T14:13:04;5.57;;;1.20;;
3999;SDS011;2014;53.604;10.112;2023-02-02T14:15:36;7.50;;;2.00;;
3999;SDS011;2014;53.604;10.112;2023-02-02T14:18:05;9.00;;;1.17;;
3999;SDS011;2014;53.604;10.112;2023-02-02T14:20:39;2.97;;;0.97;;
3999;SDS011;2014;53.604;10.112;2023-02-02T14:25:59;1.43;;;0.90;;
3999;SDS011;2014;53.604;10.112;2023-02-02T14:28:46;1.23;;;1.13;;
3999;SDS011;2014;53.604;10.112;2023-02-02T14:31:16;2.10;;;1.17;;
3999;SDS011;2014;53.604;10.112;2023-02-02T14:33:47;4.63;;;1.10;;
3999;SDS011;2014;53.604;10.112;2023-02-02T14:36:14;7.17;;;1.20;;
3999;SDS011;2014;53.604;10.112;2023-02-02T14:41:28;5.20;;;1.40;;
3999;SDS011;2014;53.604;10.112;2023-02-02T14:44:15;5.20;;;1.03;;
3999;SDS011;2014;53.604;10.112;2023-02-02T14:46:42;2.93;;;1.00;;
3999;SDS011;2014;53.604;10.112;2023-02-02T14:49:18;2.70;;;1.23;;
3999;SDS011;2014;53.604;10.112;2023-02-02T14:51:58;5.10;;;1.13;;
3999;SDS011;2014;53.604;10.112;2023-02-02T14:54:30;3.40;;;1.00;;
3999;SDS011;2014;53.604;10.112;2023-02-02T14:57:00;7.37;;;1.00;;
3999;SDS011;2014;53.604;10.112;2023-02-02T14:59:29;1.43;;;0.80;;
3999;SDS011;2014;53.604;10.112;2023-02-02T15:04:44;5.13;;;1.20;;
3999;SDS011;2014;53.604;10.112;2023-02-02T15:09:57;4.70;;;0.90;;
3999;SDS011;2014;53.604;10.112;2023-02-02T15:12:26;3.23;;;1.43;;
3999;SDS011;2014;53.604;10.112;2023-02-02T15:14:57;4.43;;;1.40;;
3999;SDS011;2014;53.604;10.112;2023-02-02T15:17:30;1.93;;;1.10;;
3999;SDS011;2014;53.604;10.112;2023-02-02T15:20:04;8.07;;;1.33;;
3999;SDS011;2014;53.604;10.112;2023-02-02T15:22:34;3.83;;;0.93;;
3999;SDS011;2014;53.604;10.112;2023-02-02T15:25:03;2.10;;;0.97;;
3999;SDS011;2014;53.604;10.112;2023-02-02T15:27:32;6.20;;;1.03;;
3999;SDS011;2014;53.604;10.112;2023-02-02T15:30:00;3.40;;;0.50;;
3999;SDS011;2014;53.604;10.112;2023-02-02T15:32:29;3.20;;;0.80;;
3999;SDS011;2014;53.604;10.112;2023-02-02T15:34:58;3.80;;;1.07;;
3999;SDS011;2014;53.604;10.112;2023-02-02T15:37:30;9.80;;;1.87;;